Time;durP1;ratioP1;P1;durP2;ratioP2;P2;SDS_P1;SDS_P2;PMS_P1;PMS_P2;Temp;Humidity;BMP_temperature;BMP_pressure;BME280_temperature;BME280_humidity;BME280_pressure;Samples;Min_cycle;Max_cycle;Signal;HPM_P1;HPM_P2
2021/03/29 00:02:01;;;;;;;9.32;3.03;;;11.40;62.90;;;;;;4995640;28;20076;-76
2021/03/29 00:04:27;;;;;;;6.78;2.67;;;11.50;62.30;;;;;;4995991;28;20046;-76
2021/03/29 00:06:56;;;;;;;8.80;3.00;;;11.50;62.20;;;;;;4995623;28;20029;-77
2021/03/29 00:09:23;;;;;;;7.28;2.60;;;11.50;61.90;;;;;;4978562;28;20045;-77
2021/03/29 00:11:50;;;;;;;9.35;2.60;;;11.50;61.60;;;;;;4995966;28;20069;-76
2021/03/29 00:14:17;;;;;;;10.68;3.00;;;11.50;61.30;;;;;;4995433;28;20100;-74
2021/03/29 00:16:44;;;;;;;9.10;2.72;;;11.50;61.10;;;;;;4994210;28;20081;-75
2021/03/29 00:19:10;;;;;;;8.70;2.67;;;11.50;61.30;;;;;;4977655;28;20042;-75
2021/03/29 00:21:37;;;;;;;6.88;2.88;;;11.40;61.40;;;;;;4995684;28;20042;-76
2021/03/29 00:24:05;;;;;;;10.88;3.08;;;11.40;61.00;;;;;;4977927;28;20069;-76
2021/03/29 00:26:32;;;;;;;10.27;2.88;;;11.40;61.00;;;;;;4978074;28;20045;-75
2021/03/29 00:28:58;;;;;;;8.00;2.50;;;11.40;61.20;;;;;;4995824;28;20039;-76
2021/03/29 00:31:24;;;;;;;6.25;2.20;;;11.40;61.10;;;;;;4995256;28;20038;-76
2021/03/29 00:33:52;;;;;;;9.57;2.65;;;11.40;61.10;;;;;;4978109;28;20123;-76
2021/03/29 00:36:23;;;;;;;7.43;2.47;;;11.30;61.40;;;;;;4995140;28;20134;-77
2021/03/29 00:38:50;;;;;;;6.75;2.33;;;11.30;61.40;;;;;;4995297;28;20089;-76
2021/03/29 00:41:17;;;;;;;6.30;2.33;;;11.30;61.40;;;;;;4977490;28;20085;-77
2021/03/29 00:43:45;;;;;;;7.78;2.35;;;11.30;61.60;;;;;;4995541;28;20054;-77
2021/03/29 00:46:13;;;;;;;9.85;2.42;;;11.30;61.60;;;;;;4994999;28;20038;-77
2021/03/29 00:48:41;;;;;;;15.10;7.50;;;11.30;61.60;;;;;;4995574;28;20042;-77
2021/03/29 00:51:15;;;;;;;12.15;5.00;;;11.30;61.90;;;;;;4994923;28;20066;-75
2021/03/29 00:53:47;;;;;;;7.20;3.05;;;11.30;62.00;;;;;;4994740;28;20034;-75
2021/03/29 00:56:14;;;;;;;6.47;2.42;;;11.20;61.80;;;;;;4977220;28;20045;-75
2021/03/29 00:58:42;;;;;;;6.10;2.17;;;11.20;61.70;;;;;;4995315;28;20057;-75
2021/03/29 01:01:14;;;;;;;6.85;2.47;;;11.20;62.20;;;;;;4995046;28;20487;-75
2021/03/29 01:04:01;;;;;;;8.32;2.45;;;11.20;62.20;;;;;;4994766;28;20177;-75
2021/03/29 01:06:54;;;;;;;9.68;2.53;;;11.20;62.10;;;;;;4995352;28;20042;-75
2021/03/29 01:09:26;;;;;;;8.10;2.15;;;11.20;62.20;;;;;;4975817;28;20435;-75
2021/03/29 01:11:55;;;;;;;8.07;2.42;;;11.20;62.20;;;;;;4977077;28;20089;-75
2021/03/29 01:14:42;;;;;;;7.50;2.60;;;11.20;62.30;;;;;;4994689;28;20074;-75
2021/03/29 01:17:13;;;;;;;9.18;2.30;;;11.20;62.20;;;;;;4995055;28;20042;-75
2021/03/29 01:19:45;;;;;;;6.97;2.38;;;11.10;61.90;;;;;;4977230;28;20049;-75
2021/03/29 01:22:16;;;;;;;8.10;2.53;;;11.20;62.00;;;;;;4977969;28;20042;-75
2021/03/29 01:25:14;;;;;;;6.15;2.70;;;11.10;62.20;;;;;;4994376;28;20042;-75
2021/03/29 01:27:44;;;;;;;7.95;2.33;;;11.10;62.40;;;;;;4998591;28;20072;-75
2021/03/29 01:30:11;;;;;;;9.45;2.67;;;11.00;62.80;;;;;;4998683;28;20487;-75
2021/03/29 01:32:39;;;;;;;9.32;2.60;;;10.90;63.10;;;;;;4981873;28;20073;-75
2021/03/29 01:35:32;;;;;;;7.47;3.10;;;10.80;63.10;;;;;;4998460;28;20038;-75
2021/03/29 01:37:59;;;;;;;6.60;2.63;;;10.80;63.20;;;;;;4996138;28;20555;-75
2021/03/29 01:40:26;;;;;;;7.72;2.17;;;10.70;63.30;;;;;;4998093;28;20068;-75
2021/03/29 01:42:54;;;;;;;7.82;2.72;;;10.70;63.20;;;;;;4998628;28;20112;-75
2021/03/29 01:45:21;;;;;;;7.82;2.60;;;10.70;63.30;;;;;;4981014;28;20034;-75
2021/03/29 01:47:47;;;;;;;10.38;3.00;;;10.70;63.20;;;;;;4980950;28;20125;-75
2021/03/29 01:50:19;;;;;;;8.88;2.28;;;10.70;63.10;;;;;;4980895;28;20035;-75
2021/03/29 01:52:46;;;;;;;9.65;2.35;;;10.70;63.50;;;;;;4998270;28;20097;-75
2021/03/29 01:55:13;;;;;;;5.38;2.30;;;10.60;63.50;;;;;;4997956;28;20030;-76
2021/03/29 01:57:39;;;;;;;9.68;2.40;;;10.70;63.90;;;;;;4998381;28;20050;-75
2021/03/29 02:00:12;;;;;;;7.70;2.15;;;10.60;63.50;;;;;;4998318;28;20109;-75
2021/03/29 02:02:40;;;;;;;5.82;2.17;;;10.50;63.70;;;;;;4965033;28;20042;-75
2021/03/29 02:05:08;;;;;;;9.10;2.10;;;10.50;63.70;;;;;;4998366;28;20104;-75
2021/03/29 02:07:35;;;;;;;6.72;2.47;;;10.50;63.80;;;;;;4998386;28;20042;-75
2021/03/29 02:10:01;;;;;;;7.65;2.17;;;10.50;64.00;;;;;;4997716;28;20065;-76
2021/03/29 02:12:28;;;;;;;10.25;2.60;;;10.50;64.10;;;;;;4997850;28;20533;-75
2021/03/29 02:14:54;;;;;;;6.93;2.60;;;10.40;64.30;;;;;;4997791;28;20049;-75
2021/03/29 02:17:21;;;;;;;7.30;1.98;;;10.40;64.40;;;;;;4998007;28;20050;-75
2021/03/29 02:19:47;;;;;;;6.00;2.10;;;10.30;64.50;;;;;;4997708;28;20124;-75
2021/03/29 02:22:13;;;;;;;7.63;2.53;;;10.30;64.70;;;;;;4980448;28;20139;-75
2021/03/29 02:24:40;;;;;;;7.70;2.55;;;10.30;64.70;;;;;;4979907;28;20069;-75
2021/03/29 02:27:07;;;;;;;11.38;3.00;;;10.30;64.70;;;;;;4980021;28;20034;-75
2021/03/29 02:29:33;;;;;;;7.03;2.30;;;10.20;64.90;;;;;;4997906;28;20030;-75
2021/03/29 02:32:00;;;;;;;6.55;2.50;;;10.20;65.30;;;;;;4979925;28;20060;-75
2021/03/29 02:34:26;;;;;;;10.85;2.95;;;10.20;65.40;;;;;;4980136;28;20080;-75
2021/03/29 02:36:56;;;;;;;9.93;2.80;;;10.20;65.00;;;;;;4980250;28;20442;-75
2021/03/29 02:39:22;;;;;;;10.13;3.20;;;10.20;65.00;;;;;;4997335;28;20046;-75
2021/03/29 02:41:49;;;;;;;9.93;2.72;;;10.20;64.80;;;;;;4996328;28;20058;-75
2021/03/29 02:44:17;;;;;;;11.35;3.10;;;10.20;65.20;;;;;;4997580;28;20125;-75
2021/03/29 02:46:43;;;;;;;5.72;2.13;;;10.10;65.30;;;;;;4997645;28;20105;-76
2021/03/29 02:49:10;;;;;;;6.65;2.80;;;10.10;65.60;;;;;;4997951;28;20034;-75
2021/03/29 02:51:41;;;;;;;8.55;2.80;;;10.10;65.80;;;;;;4996371;28;20080;-76
2021/03/29 02:54:09;;;;;;;9.38;3.13;;;10.00;66.10;;;;;;4997187;28;20050;-76
2021/03/29 02:56:40;;;;;;;7.70;2.40;;;10.00;66.20;;;;;;4997282;28;20518;-75
2021/03/29 02:59:13;;;;;;;7.03;2.50;;;10.00;66.20;;;;;;4997287;28;20049;-75
2021/03/29 03:01:40;;;;;;;12.27;2.70;;;10.00;66.10;;;;;;4997746;28;20107;-76
2021/03/29 03:04:11;;;;;;;10.88;3.13;;;9.90;66.20;;;;;;4980383;28;20038;-76
2021/03/29 03:06:39;;;;;;;6.45;2.40;;;9.90;66.20;;;;;;4997710;28;20365;-76
2021/03/29 03:09:07;;;;;;;10.85;2.88;;;9.90;66.30;;;;;;4997198;28;20088;-75
2021/03/29 03:11:34;;;;;;;7.00;2.55;;;9.80;66.40;;;;;;4997031;28;20042;-75
2021/03/29 03:14:03;;;;;;;7.43;2.40;;;9.80;66.50;;;;;;4997478;28;20042;-75
2021/03/29 03:16:31;;;;;;;7.63;2.83;;;9.80;66.50;;;;;;4996990;28;20050;-75
2021/03/29 03:18:57;;;;;;;6.07;2.15;;;9.80;66.70;;;;;;4996883;28;20042;-76
2021/03/29 03:21:23;;;;;;;7.72;2.47;;;9.80;66.50;;;;;;4996896;28;20397;-76
2021/03/29 03:23:57;;;;;;;8.48;2.58;;;9.80;66.60;;;;;;4979099;28;20071;-75
2021/03/29 03:26:28;;;;;;;9.27;2.35;;;9.80;66.60;;;;;;4997292;28;20507;-75
2021/03/29 03:28:54;;;;;;;6.47;2.70;;;9.70;66.50;;;;;;4997206;28;20041;-75
2021/03/29 03:31:21;;;;;;;8.50;2.42;;;9.70;66.90;;;;;;4979441;28;20041;-75
2021/03/29 03:33:47;;;;;;;7.82;2.58;;;9.70;67.00;;;;;;4995666;28;20045;-76
2021/03/29 03:36:15;;;;;;;10.15;2.50;;;9.70;66.80;;;;;;4996528;28;20046;-75
2021/03/29 03:38:46;;;;;;;5.75;2.05;;;9.70;66.70;;;;;;4978513;28;20088;-75
2021/03/29 03:41:15;;;;;;;9.10;2.50;;;9.70;66.70;;;;;;4996374;28;20066;-76
2021/03/29 03:43:51;;;;;;;8.23;2.53;;;9.60;67.10;;;;;;4996291;28;20045;-76
2021/03/29 03:46:26;;;;;;;9.63;2.30;;;9.60;66.50;;;;;;4978625;28;20173;-75
2021/03/29 03:48:56;;;;;;;8.00;2.45;;;9.60;66.50;;;;;;4996406;28;20406;-75
2021/03/29 03:51:26;;;;;;;7.60;2.63;;;9.60;66.70;;;;;;4996591;28;20147;-75
2021/03/29 03:53:52;;;;;;;7.15;2.25;;;9.60;66.60;;;;;;4996271;28;20053;-76
2021/03/29 03:56:19;;;;;;;6.57;2.08;;;9.60;66.60;;;;;;4996175;28;20121;-75
2021/03/29 03:58:47;;;;;;;11.52;2.70;;;9.50;66.70;;;;;;4996681;28;20070;-76
2021/03/29 04:01:13;;;;;;;11.35;3.38;;;9.50;66.60;;;;;;4996015;28;20129;-76
2021/03/29 04:03:39;;;;;;;8.27;2.55;;;9.50;66.70;;;;;;4994658;28;20093;-76
2021/03/29 04:06:05;;;;;;;7.47;2.55;;;9.50;66.90;;;;;;4978822;28;20035;-76
2021/03/29 04:08:31;;;;;;;10.73;3.22;;;9.50;67.20;;;;;;4978722;28;20058;-76
2021/03/29 04:10:59;;;;;;;8.48;2.53;;;9.50;67.00;;;;;;4995709;28;20047;-75
2021/03/29 04:13:30;;;;;;;5.07;2.38;;;9.40;67.40;;;;;;4995827;28;20065;-76
2021/03/29 04:16:02;;;;;;;11.50;3.00;;;9.40;67.50;;;;;;4995875;28;20046;-75
2021/03/29 04:18:28;;;;;;;7.35;2.80;;;9.40;67.40;;;;;;4995988;28;20049;-76
2021/03/29 04:20:55;;;;;;;11.60;3.55;;;9.40;67.40;;;;;;4978766;28;20472;-76
2021/03/29 04:23:23;;;;;;;6.32;2.63;;;9.40;67.70;;;;;;4978888;28;20034;-75
2021/03/29 04:25:49;;;;;;;10.32;3.28;;;9.40;67.40;;;;;;4995462;28;20046;-75
2021/03/29 04:28:16;;;;;;;12.77;3.10;;;9.40;67.50;;;;;;4994608;28;20104;-75
2021/03/29 04:30:42;;;;;;;10.27;2.70;;;9.50;67.80;;;;;;4995618;28;20026;-75
2021/03/29 04:33:08;;;;;;;9.30;3.25;;;9.40;67.30;;;;;;4995676;28;20034;-75
2021/03/29 04:35:34;;;;;;;11.73;2.95;;;9.40;67.30;;;;;;4995436;28;20511;-75
2021/03/29 04:38:00;;;;;;;8.18;2.65;;;9.40;67.30;;;;;;4978120;28;20030;-75
2021/03/29 04:40:27;;;;;;;9.05;2.75;;;9.40;67.00;;;;;;4995241;28;20137;-75
2021/03/29 04:42:54;;;;;;;8.65;2.53;;;9.50;66.90;;;;;;4977613;28;20072;-75
2021/03/29 04:45:21;;;;;;;11.98;2.50;;;9.50;66.80;;;;;;4994198;28;20638;-75
2021/03/29 04:47:47;;;;;;;10.70;2.75;;;9.50;66.60;;;;;;4994961;28;20499;-75
2021/03/29 04:50:15;;;;;;;10.68;2.97;;;9.40;66.80;;;;;;4977493;28;20042;-75
2021/03/29 04:52:41;;;;;;;10.52;2.88;;;9.40;66.80;;;;;;4994931;28;20038;-75
2021/03/29 04:55:08;;;;;;;11.43;2.83;;;9.30;67.20;;;;;;4994790;28;20050;-75
2021/03/29 04:57:34;;;;;;;8.82;2.58;;;9.30;67.40;;;;;;4995020;28;20038;-75
2021/03/29 05:00:00;;;;;;;12.63;3.03;;;9.30;67.60;;;;;;4994961;28;20126;-75
2021/03/29 05:02:26;;;;;;;11.60;3.10;;;9.30;67.60;;;;;;4993856;28;20500;-75
2021/03/29 05:04:52;;;;;;;9.48;3.38;;;9.30;67.50;;;;;;4994722;28;20034;-75
2021/03/29 05:07:18;;;;;;;8.35;3.22;;;9.30;67.30;;;;;;4994908;28;20503;-75
2021/03/29 05:09:44;;;;;;;15.60;3.10;;;9.30;67.40;;;;;;4994773;28;20491;-75
2021/03/29 05:12:17;;;;;;;11.15;2.55;;;9.20;67.60;;;;;;4977597;28;20035;-76
2021/03/29 05:14:43;;;;;;;12.63;3.40;;;9.20;67.60;;;;;;4994051;28;20050;-75
2021/03/29 05:17:10;;;;;;;16.95;3.38;;;9.20;67.70;;;;;;4994698;28;20038;-75
2021/03/29 05:19:36;;;;;;;8.88;2.80;;;9.20;67.60;;;;;;4995290;28;20077;-75
2021/03/29 05:22:04;;;;;;;8.07;2.38;;;9.20;67.90;;;;;;4994725;28;20066;-75
2021/03/29 05:24:30;;;;;;;12.00;2.83;;;9.20;67.90;;;;;;4994733;28;20077;-75
2021/03/29 05:26:56;;;;;;;13.13;3.10;;;9.10;68.00;;;;;;4994667;28;20038;-75
2021/03/29 05:29:28;;;;;;;9.15;2.47;;;9.10;68.00;;;;;;4994942;28;20058;-75
2021/03/29 05:31:55;;;;;;;8.65;2.70;;;9.00;68.10;;;;;;4976885;28;20046;-75
2021/03/29 05:34:22;;;;;;;10.50;2.80;;;9.00;68.00;;;;;;4994563;28;20052;-76
2021/03/29 05:36:48;;;;;;;9.05;2.53;;;9.00;67.90;;;;;;4993559;28;20038;-76
2021/03/29 05:39:14;;;;;;;14.15;3.70;;;9.00;67.70;;;;;;4994590;28;20049;-76
2021/03/29 05:41:40;;;;;;;22.40;4.78;;;9.00;68.00;;;;;;4994378;28;20593;-77
2021/03/29 05:44:08;;;;;;;23.42;4.43;;;9.00;67.50;;;;;;4994888;28;20157;-77
2021/03/29 05:46:39;;;;;;;18.77;4.07;;;8.90;67.60;;;;;;4992844;28;20031;-77
2021/03/29 05:49:06;;;;;;;12.32;3.40;;;8.90;67.50;;;;;;4995187;28;20521;-78
2021/03/29 05:51:37;;;;;;;8.95;2.88;;;8.90;66.80;;;;;;4977447;28;20125;-78
2021/03/29 05:54:04;;;;;;;18.10;3.72;;;8.90;67.00;;;;;;4995199;28;20050;-78
2021/03/29 05:56:32;;;;;;;17.77;3.65;;;8.90;66.70;;;;;;4977415;28;20038;-79
2021/03/29 05:59:22;;;;;;;20.83;3.97;;;8.90;66.80;;;;;;4977716;28;20353;-78
2021/03/29 06:01:50;;;;;;;13.65;3.33;;;8.90;66.90;;;;;;4977303;28;20038;-77
2021/03/29 06:04:37;;;;;;;22.98;4.72;;;8.90;66.70;;;;;;4977213;28;20130;-79
2021/03/29 06:07:23;;;;;;;87.95;18.45;;;8.90;66.70;;;;;;4991814;28;20056;-77
2021/03/29 06:09:51;;;;;;;17.50;5.88;;;8.90;68.50;;;;;;4977036;28;20223;-78
2021/03/29 06:12:19;;;;;;;19.80;4.55;;;8.90;66.60;;;;;;4995631;28;20130;-76
2021/03/29 06:14:46;;;;;;;11.85;3.38;;;8.80;66.40;;;;;;4979665;28;20155;-77
2021/03/29 06:17:13;;;;;;;16.23;3.88;;;8.90;66.00;;;;;;4996946;28;20034;-77
2021/03/29 06:19:45;;;;;;;10.20;3.67;;;8.90;65.90;;;;;;4997907;28;20144;-77
2021/03/29 06:22:12;;;;;;;16.88;3.65;;;8.90;65.50;;;;;;4980348;28;20042;-78
2021/03/29 06:24:51;;;;;;;12.48;3.80;;;9.00;65.30;;;;;;4997742;28;20054;-78
2021/03/29 06:27:19;;;;;;;14.25;3.63;;;9.00;65.10;;;;;;4980606;28;20030;-78
2021/03/29 06:29:45;;;;;;;10.52;3.33;;;9.00;64.90;;;;;;4980293;28;20084;-78
2021/03/29 06:32:15;;;;;;;24.60;4.63;;;9.10;64.80;;;;;;4997711;28;20125;-78
2021/03/29 06:34:41;;;;;;;12.85;3.95;;;9.10;64.30;;;;;;4997125;28;20098;-78
2021/03/29 06:37:08;;;;;;;8.45;3.13;;;9.20;64.10;;;;;;4980705;28;20380;-79
2021/03/29 06:39:38;;;;;;;9.85;2.78;;;9.30;64.10;;;;;;4996124;28;20073;-80
2021/03/29 06:42:05;;;;;;;14.32;3.00;;;9.30;63.50;;;;;;4980043;28;20054;-78
2021/03/29 06:44:37;;;;;;;15.48;2.65;;;9.40;62.30;;;;;;4997709;28;20042;-77
2021/03/29 06:47:11;;;;;;;15.25;3.53;;;9.50;61.70;;;;;;4997951;28;20149;-77
2021/03/29 06:49:39;;;;;;;10.80;2.97;;;9.60;61.50;;;;;;4997479;28;20041;-79
2021/03/29 06:52:26;;;;;;;11.00;3.30;;;9.60;61.00;;;;;;4979856;28;20046;-77
2021/03/29 06:55:11;;;;;;;9.45;3.53;;;9.70;60.90;;;;;;4996442;28;20061;-77
2021/03/29 06:57:40;;;;;;;16.27;3.33;;;9.70;61.10;;;;;;4992003;28;20452;-77
2021/03/29 07:00:09;;;;;;;13.80;2.85;;;9.80;61.00;;;;;;4966820;28;20092;-77
2021/03/29 07:02:43;;;;;;;20.73;3.25;;;9.80;60.90;;;;;;4969447;28;20053;-76
2021/03/29 07:05:10;;;;;;;14.55;3.42;;;9.90;60.50;;;;;;4953898;28;20362;-78
2021/03/29 07:07:37;;;;;;;8.35;3.13;;;10.00;60.10;;;;;;4952735;28;20037;-79
2021/03/29 07:10:06;;;;;;;15.13;3.70;;;10.10;59.90;;;;;;4954443;28;20045;-80
2021/03/29 07:12:37;;;;;;;15.23;3.33;;;10.20;59.60;;;;;;4953527;28;20244;-79
2021/03/29 07:15:06;;;;;;;10.90;3.05;;;10.20;59.50;;;;;;4971726;28;20050;-78
2021/03/29 07:17:36;;;;;;;17.38;3.75;;;10.40;59.40;;;;;;4985848;28;20054;-76
2021/03/29 07:20:04;;;;;;;6.70;2.97;;;10.50;59.30;;;;;;4970971;28;20145;-77
2021/03/29 07:22:31;;;;;;;13.80;3.38;;;10.50;59.30;;;;;;4953334;28;20048;-77
2021/03/29 07:25:03;;;;;;;8.48;2.90;;;10.70;59.30;;;;;;4968841;28;20736;-76
2021/03/29 07:27:31;;;;;;;12.70;2.80;;;10.80;59.50;;;;;;4965300;28;21683;-77
2021/03/29 07:29:57;;;;;;;11.82;3.47;;;10.90;59.40;;;;;;4950369;28;20069;-76
2021/03/29 07:32:31;;;;;;;11.88;3.28;;;11.00;59.70;;;;;;4972415;28;20069;-76
2021/03/29 07:34:58;;;;;;;13.50;3.90;;;11.20;59.70;;;;;;4990069;28;20038;-76
2021/03/29 07:37:41;;;;;;;9.63;2.97;;;11.20;59.90;;;;;;4993909;28;20129;-76
2021/03/29 07:40:18;;;;;;;13.68;3.75;;;11.40;60.00;;;;;;4994909;28;20134;-77
2021/03/29 07:42:51;;;;;;;9.50;3.45;;;11.60;59.80;;;;;;4994965;28;20092;-78
2021/03/29 07:45:24;;;;;;;9.07;2.90;;;11.70;59.60;;;;;;4994309;28;20529;-78
2021/03/29 07:47:57;;;;;;;8.73;2.97;;;11.90;59.10;;;;;;4994771;28;20065;-78
2021/03/29 07:50:26;;;;;;;11.15;4.03;;;12.10;59.10;;;;;;4990824;28;20034;-77
2021/03/29 07:52:57;;;;;;;10.88;3.17;;;12.30;58.90;;;;;;4995437;28;20081;-77
2021/03/29 07:55:31;;;;;;;9.02;3.13;;;12.40;58.80;;;;;;4994201;28;20034;-77
2021/03/29 07:57:58;;;;;;;13.90;2.92;;;12.50;58.60;;;;;;4995772;28;20050;-78
2021/03/29 08:00:24;;;;;;;9.95;3.05;;;12.70;58.40;;;;;;4982337;28;20063;-76
2021/03/29 08:02:50;;;;;;;9.40;3.08;;;12.90;58.00;;;;;;4993740;28;20058;-78
2021/03/29 08:05:36;;;;;;;9.80;3.08;;;13.00;58.30;;;;;;5008071;28;20042;-78
2021/03/29 08:08:04;;;;;;;11.90;3.30;;;13.10;57.40;;;;;;5015329;28;20042;-78
2021/03/29 08:11:13;;;;;;;15.73;3.05;;;13.30;56.90;;;;;;4996601;28;20565;-78
2021/03/29 08:13:50;;;;;;;11.35;3.45;;;13.50;56.30;;;;;;4986592;28;20050;-78
2021/03/29 08:16:21;;;;;;;11.43;2.78;;;13.60;55.90;;;;;;4997399;28;20042;-78
2021/03/29 08:19:19;;;;;;;17.35;3.22;;;13.70;55.70;;;;;;5015326;28;20042;-79
2021/03/29 08:21:57;;;;;;;9.52;3.00;;;13.90;55.20;;;;;;5014984;28;20096;-79
2021/03/29 08:24:36;;;;;;;7.70;2.80;;;14.00;54.90;;;;;;5014559;28;20100;-78
2021/03/29 08:27:08;;;;;;;9.68;2.83;;;14.10;54.30;;;;;;5015108;28;20037;-78
2021/03/29 08:29:41;;;;;;;10.18;2.83;;;14.20;54.00;;;;;;5014634;28;20038;-78
2021/03/29 08:32:11;;;;;;;17.25;3.55;;;14.30;53.80;;;;;;5013976;28;20045;-78
2021/03/29 08:35:03;;;;;;;8.75;2.97;;;14.40;54.30;;;;;;4996767;28;20403;-78
2021/03/29 08:37:31;;;;;;;13.20;3.45;;;14.50;53.60;;;;;;5014605;28;20034;-78
2021/03/29 08:40:00;;;;;;;12.77;3.60;;;14.60;53.60;;;;;;4996289;28;20061;-79
2021/03/29 08:42:34;;;;;;;13.27;4.00;;;14.70;53.30;;;;;;4986073;28;20068;-79
2021/03/29 08:45:02;;;;;;;8.52;2.95;;;14.80;52.90;;;;;;4993261;28;20049;-77
2021/03/29 08:47:29;;;;;;;18.33;3.67;;;14.90;52.70;;;;;;4994870;28;20038;-78
2021/03/29 08:50:00;;;;;;;11.90;3.25;;;15.00;52.50;;;;;;4994375;28;20129;-78
2021/03/29 08:52:38;;;;;;;7.72;2.85;;;15.00;52.40;;;;;;4994988;28;20038;-81
2021/03/29 08:55:04;;;;;;;11.77;3.17;;;15.10;52.50;;;;;;4977489;28;20049;-78
2021/03/29 08:57:32;;;;;;;14.05;2.83;;;15.30;52.50;;;;;;4994669;28;20050;-78
2021/03/29 09:00:00;;;;;;;8.65;3.05;;;15.50;52.00;;;;;;4995175;28;20057;-78
2021/03/29 09:02:26;;;;;;;9.50;3.25;;;15.60;51.70;;;;;;4994932;28;20048;-78
2021/03/29 09:04:57;;;;;;;9.52;3.10;;;15.70;51.50;;;;;;4993887;28;20121;-78
2021/03/29 09:07:42;;;;;;;8.88;3.22;;;15.80;50.80;;;;;;4994577;28;20077;-78
2021/03/29 09:10:16;;;;;;;11.05;3.13;;;15.80;51.10;;;;;;4988950;28;20074;-78
2021/03/29 09:12:43;;;;;;;9.13;3.30;;;15.80;51.50;;;;;;4994133;28;20717;-78
2021/03/29 09:15:17;;;;;;;14.25;3.30;;;16.00;51.40;;;;;;4973575;28;20043;-78
2021/03/29 09:17:44;;;;;;;11.23;3.03;;;16.00;51.60;;;;;;4975250;28;20102;-77
2021/03/29 09:20:27;;;;;;;8.23;3.05;;;16.20;51.30;;;;;;4975382;28;20043;-76
2021/03/29 09:22:53;;;;;;;10.02;3.30;;;16.30;50.70;;;;;;4974995;28;20484;-78
2021/03/29 09:25:36;;;;;;;9.80;3.80;;;16.40;51.50;;;;;;4973638;28;20105;-78
2021/03/29 09:31:10;;;;;;;10.75;3.90;;;16.70;50.80;;;;;;4974924;28;20035;-78
2021/03/29 09:33:39;;;;;;;14.88;4.20;;;16.80;50.60;;;;;;4973018;28;20093;-78
2021/03/29 09:36:14;;;;;;;14.60;3.60;;;17.00;50.80;;;;;;4973593;28;20077;-78
2021/03/29 09:38:45;;;;;;;11.88;3.53;;;17.10;50.10;;;;;;4973147;28;20055;-81
2021/03/29 09:41:26;;;;;;;11.25;3.40;;;17.30;50.60;;;;;;4974262;28;20065;-78
2021/03/29 09:43:53;;;;;;;19.67;4.75;;;17.50;50.20;;;;;;4972230;28;20039;-78
2021/03/29 09:46:30;;;;;;;17.13;4.18;;;17.60;49.80;;;;;;4974542;28;20039;-79
2021/03/29 09:49:11;;;;;;;9.95;2.88;;;17.70;49.80;;;;;;4976875;28;20039;-78
2021/03/29 09:51:38;;;;;;;20.45;5.53;;;17.80;49.30;;;;;;4978344;28;20122;-79
2021/03/29 09:54:26;;;;;;;10.57;4.63;;;18.00;49.60;;;;;;4977398;28;20039;-78
2021/03/29 09:56:53;;;;;;;19.88;5.95;;;18.20;48.90;;;;;;4976256;28;20045;-78
2021/03/29 09:59:30;;;;;;;9.77;3.35;;;18.20;48.40;;;;;;4977652;28;20034;-78
2021/03/29 10:01:58;;;;;;;13.50;3.28;;;18.20;47.80;;;;;;4976986;28;20042;-77
2021/03/29 10:04:24;;;;;;;8.57;2.65;;;18.20;48.40;;;;;;4977133;28;20045;-79
2021/03/29 10:06:55;;;;;;;12.05;3.10;;;18.30;48.40;;;;;;4977601;28;20047;-80
2021/03/29 10:09:35;;;;;;;13.05;2.97;;;18.30;48.40;;;;;;4975916;28;20034;-79
2021/03/29 10:12:02;;;;;;;5.68;2.35;;;18.60;47.90;;;;;;4977969;28;20039;-79
2021/03/29 10:14:39;;;;;;;9.40;3.10;;;18.70;47.50;;;;;;4975787;28;20472;-78
2021/03/29 10:17:20;;;;;;;9.43;2.80;;;18.70;47.40;;;;;;4977529;28;20408;-78
2021/03/29 10:19:47;;;;;;;8.70;2.80;;;18.60;48.10;;;;;;4976190;28;20057;-78
2021/03/29 10:22:19;;;;;;;11.20;2.92;;;18.60;48.30;;;;;;4976739;28;20046;-78
2021/03/29 10:25:15;;;;;;;8.18;3.35;;;18.90;47.70;;;;;;4977207;28;20531;-78
2021/03/29 10:27:47;;;;;;;10.85;3.20;;;19.00;47.20;;;;;;4976011;28;20429;-78
2021/03/29 10:30:19;;;;;;;11.13;3.10;;;19.10;47.60;;;;;;4979413;28;20146;-79
2021/03/29 10:32:56;;;;;;;11.43;3.08;;;19.30;47.10;;;;;;4977085;28;20070;-78
2021/03/29 10:35:24;;;;;;;7.38;3.00;;;19.40;46.60;;;;;;4976520;28;20038;-79
2021/03/29 10:37:50;;;;;;;7.25;2.90;;;19.60;46.40;;;;;;4976033;28;20043;-78
2021/03/29 10:40:17;;;;;;;12.32;2.85;;;19.60;46.10;;;;;;4989618;28;20464;-78
2021/03/29 10:42:43;;;;;;;12.45;2.78;;;19.70;46.50;;;;;;4996700;28;20141;-79
2021/03/29 10:45:15;;;;;;;7.70;2.75;;;19.80;45.80;;;;;;4996054;28;20073;-79
2021/03/29 10:47:42;;;;;;;12.52;3.72;;;19.80;45.70;;;;;;4978842;28;20038;-78
2021/03/29 10:50:10;;;;;;;7.63;2.75;;;19.80;46.10;;;;;;4996454;28;20116;-78
2021/03/29 10:52:37;;;;;;;9.27;3.33;;;19.90;46.20;;;;;;4979293;28;20030;-78
2021/03/29 10:55:04;;;;;;;10.45;2.92;;;20.00;45.20;;;;;;4978311;28;20399;-78
2021/03/29 10:57:30;;;;;;;8.40;2.60;;;19.90;45.50;;;;;;4996068;28;20046;-78
2021/03/29 10:59:56;;;;;;;11.32;2.90;;;20.00;45.50;;;;;;4994920;28;20038;-79
2021/03/29 11:02:22;;;;;;;8.55;3.20;;;20.10;45.40;;;;;;4991516;28;20141;-78
2021/03/29 11:04:48;;;;;;;9.13;2.83;;;20.30;45.50;;;;;;4994220;28;20146;-78
2021/03/29 11:07:14;;;;;;;10.90;2.83;;;20.60;45.20;;;;;;4993311;28;20472;-78
2021/03/29 11:09:40;;;;;;;12.45;3.17;;;20.70;44.30;;;;;;4995387;28;20043;-78
2021/03/29 11:12:07;;;;;;;9.27;3.08;;;20.80;44.10;;;;;;4996074;28;20077;-78
2021/03/29 11:14:33;;;;;;;10.95;3.05;;;20.80;44.30;;;;;;4996123;28;20046;-78
2021/03/29 11:16:59;;;;;;;10.38;3.00;;;20.90;44.70;;;;;;4994837;28;20100;-78
2021/03/29 11:19:25;;;;;;;11.23;3.08;;;21.00;44.10;;;;;;4978631;28;20109;-78
2021/03/29 11:21:52;;;;;;;9.60;3.60;;;21.00;44.10;;;;;;4996326;28;20034;-78
2021/03/29 11:24:22;;;;;;;10.93;3.17;;;21.20;43.80;;;;;;4995131;28;20070;-78
2021/03/29 11:26:48;;;;;;;9.25;2.80;;;21.30;42.60;;;;;;4993874;28;20030;-78
2021/03/29 11:29:15;;;;;;;7.90;2.80;;;21.20;42.80;;;;;;4995033;28;20035;-78
2021/03/29 11:31:42;;;;;;;9.60;2.95;;;21.20;42.70;;;;;;4994972;28;20176;-78
2021/03/29 11:34:10;;;;;;;8.43;2.83;;;21.30;41.60;;;;;;4994552;28;20073;-78
2021/03/29 11:36:36;;;;;;;8.88;3.05;;;21.40;42.40;;;;;;4976742;28;20412;-79
2021/03/29 11:39:05;;;;;;;13.30;2.88;;;21.50;42.20;;;;;;4976810;28;20038;-79
2021/03/29 11:41:31;;;;;;;10.02;3.70;;;21.60;42.60;;;;;;4995538;28;20046;-79
2021/03/29 11:43:57;;;;;;;11.90;3.10;;;21.80;42.50;;;;;;4994538;28;20038;-79
2021/03/29 11:46:23;;;;;;;8.85;3.25;;;21.80;42.30;;;;;;4996183;28;20038;-79
2021/03/29 11:48:49;;;;;;;8.93;2.88;;;21.90;41.20;;;;;;4978120;28;20529;-79
2021/03/29 11:51:14;;;;;;;10.75;2.70;;;21.80;41.20;;;;;;4995675;28;20097;-79
2021/03/29 11:53:41;;;;;;;12.18;2.97;;;21.80;41.30;;;;;;4995970;28;20118;-79
2021/03/29 11:56:07;;;;;;;10.00;2.90;;;21.90;40.30;;;;;;4978530;28;20053;-80
2021/03/29 11:58:33;;;;;;;8.15;2.72;;;22.00;39.70;;;;;;4995927;28;20070;-80
2021/03/29 12:01:13;;;;;;;11.23;2.55;;;22.20;39.90;;;;;;4995505;28;20514;-79
2021/03/29 12:03:48;;;;;;;15.02;2.85;;;22.10;38.90;;;;;;4995685;28;20499;-79
2021/03/29 12:06:21;;;;;;;8.98;2.92;;;22.10;38.80;;;;;;4995782;28;20575;-81
2021/03/29 12:09:36;;;;;;;9.48;3.28;;;22.10;39.10;;;;;;4994803;28;20051;-79
2021/03/29 12:14:11;;;;;;;12.35;2.70;;;22.40;38.60;;;;;;4995269;28;20035;-79
2021/03/29 12:16:41;;;;;;;5.72;2.25;;;22.50;37.40;;;;;;4995360;28;20054;-79
2021/03/29 12:19:07;;;;;;;12.88;3.58;;;22.50;36.40;;;;;;4995510;28;20046;-79
2021/03/29 12:21:36;;;;;;;11.55;2.72;;;22.60;37.00;;;;;;4995480;28;20042;-79
2021/03/29 12:24:13;;;;;;;9.52;2.65;;;22.90;36.40;;;;;;4995246;28;20172;-79
2021/03/29 12:26:40;;;;;;;6.80;2.65;;;23.00;36.80;;;;;;4996031;28;20117;-80
2021/03/29 12:29:09;;;;;;;9.35;2.83;;;23.00;36.50;;;;;;4995581;28;20110;-81
2021/03/29 12:31:39;;;;;;;10.77;2.55;;;23.00;37.80;;;;;;4995291;28;20133;-80
2021/03/29 12:34:06;;;;;;;8.20;3.10;;;23.10;38.60;;;;;;4995526;28;20100;-78
2021/03/29 12:36:38;;;;;;;7.78;2.83;;;23.20;39.00;;;;;;4995485;28;20050;-78
2021/03/29 12:39:11;;;;;;;12.20;2.92;;;23.60;38.80;;;;;;4995184;28;20046;-79
2021/03/29 12:41:41;;;;;;;6.97;2.20;;;23.60;38.70;;;;;;4995395;28;20050;-79
2021/03/29 12:44:14;;;;;;;8.57;2.42;;;23.70;38.00;;;;;;4995316;28;20042;-79
2021/03/29 12:46:42;;;;;;;8.35;2.95;;;23.80;37.60;;;;;;4995595;28;20050;-79
2021/03/29 12:49:13;;;;;;;9.45;3.38;;;23.60;38.10;;;;;;4993727;28;20034;-79
2021/03/29 12:51:40;;;;;;;12.30;2.92;;;23.60;37.90;;;;;;4994915;28;20108;-79
2021/03/29 12:54:11;;;;;;;9.55;3.60;;;23.60;37.50;;;;;;4994583;28;20496;-79
2021/03/29 12:56:38;;;;;;;8.00;3.50;;;23.50;37.70;;;;;;4995132;28;20042;-79
2021/03/29 12:59:05;;;;;;;12.18;3.58;;;23.40;38.20;;;;;;4994901;28;20096;-79
2021/03/29 13:01:33;;;;;;;10.95;3.10;;;23.40;38.50;;;;;;4994716;28;20073;-80
2021/03/29 13:04:01;;;;;;;9.00;2.50;;;23.40;38.40;;;;;;4992131;28;20085;-79
2021/03/29 13:06:36;;;;;;;10.70;3.42;;;23.40;38.20;;;;;;4993040;28;20035;-79